sensor_id;sensor_type;location;lat;lon;timestamp;pressure;altitude;pressure_sealevel;temperature;humidity
60170;BME280;46042;49.444;6.862;2023-01-23T00:01:04;99996.69;;;-1.17;100.00
60170;BME280;46042;49.444;6.862;2023-01-23T00:03:31;99994.09;;;-1.20;100.00
60170;BME280;46042;49.444;6.862;2023-01-23T00:06:05;99997.56;;;-1.21;100.00
60170;BME280;46042;49.444;6.862;2023-01-23T00:08:32;99986.34;;;-1.17;100.00
60170;BME280;46042;49.444;6.862;2023-01-23T00:11:03;99996.69;;;-1.17;100.00
60170;BME280;46042;49.444;6.862;2023-01-23T00:13:31;99998.44;;;-1.16;100.00
60170;BME280;46042;49.444;6.862;2023-01-23T00:15:57;99999.28;;;-1.18;100.00
60170;BME280;46042;49.444;6.862;2023-01-23T00:18:24;100001.88;;;-1.17;100.00
60170;BME280;46042;49.444;6.862;2023-01-23T00:20:50;100003.59;;;-1.16;100.00
60170;BME280;46042;49.444;6.862;2023-01-23T00:23:17;99994.97;;;-1.18;100.00
60170;BME280;46042;49.444;6.862;2023-01-23T00:25:44;99988.94;;;-1.17;100.00
60170;BME280;46042;49.444;6.862;2023-01-23T00:28:10;99992.38;;;-1.18;100.00
60170;BME280;46042;49.444;6.862;2023-01-23T00:30:37;99992.38;;;-1.15;100.00
60170;BME280;46042;49.444;6.862;2023-01-23T00:33:03;99992.41;;;-1.16;100.00
60170;BME280;46042;49.444;6.862;2023-01-23T00:35:33;99987.22;;;-1.16;100.00
60170;BME280;46042;49.444;6.862;2023-01-23T00:38:00;99982.94;;;-1.11;100.00
60170;BME280;46042;49.444;6.862;2023-01-23T00:40:26;99992.41;;;-1.07;100.00
60170;BME280;46042;49.444;6.862;2023-01-23T00:42:53;99994.16;;;-1.10;100.00
60170;BME280;46042;49.444;6.862;2023-01-23T00:45:20;99997.59;;;-1.10;100.00
60170;BME280;46042;49.444;6.862;2023-01-23T00:47:46;99987.25;;;-1.07;100.00
60170;BME280;46042;49.444;6.862;2023-01-23T00:50:13;99988.97;;;-1.06;100.00
60170;BME280;46042;49.444;6.862;2023-01-23T00:52:40;99991.56;;;-1.06;100.00
60170;BME280;46042;49.444;6.862;2023-01-23T00:55:07;99988.97;;;-1.06;100.00
60170;BME280;46042;49.444;6.862;2023-01-23T00:57:34;99994.13;;;-1.12;100.00
60170;BME280;46042;49.444;6.862;2023-01-23T01:00:00;100001.03;;;-1.11;100.00
60170;BME280;46042;49.444;6.862;2023-01-23T01:02:27;100000.19;;;-1.10;100.00
60170;BME280;46042;49.444;6.862;2023-01-23T01:04:54;99994.13;;;-1.09;100.00
60170;BME280;46042;49.444;6.862;2023-01-23T01:07:20;100000.19;;;-1.05;100.00
60170;BME280;46042;49.444;6.862;2023-01-23T01:09:48;99998.47;;;-1.05;100.00
60170;BME280;46042;49.444;6.862;2023-01-23T01:12:14;100000.19;;;-1.04;100.00
60170;BME280;46042;49.444;6.862;2023-01-23T01:14:41;99995.91;;;-1.00;100.00
60170;BME280;46042;49.444;6.862;2023-01-23T01:17:08;99997.63;;;-0.97;100.00
60170;BME280;46042;49.444;6.862;2023-01-23T01:19:35;100008.84;;;-0.98;100.00
60170;BME280;46042;49.444;6.862;2023-01-23T01:22:02;100010.56;;;-1.01;100.00
60170;BME280;46042;49.444;6.862;2023-01-23T01:24:28;100007.94;;;-1.04;100.00
60170;BME280;46042;49.444;6.862;2023-01-23T01:26:55;100009.69;;;-1.01;100.00
60170;BME280;46042;49.444;6.862;2023-01-23T01:29:22;100010.56;;;-1.01;100.00
60170;BME280;46042;49.444;6.862;2023-01-23T01:31:48;100009.69;;;-1.04;100.00
60170;BME280;46042;49.444;6.862;2023-01-23T01:34:15;100009.69;;;-1.03;100.00
60170;BME280;46042;49.444;6.862;2023-01-23T01:36:42;100004.50;;;-1.04;100.00
60170;BME280;46042;49.444;6.862;2023-01-23T01:39:08;100007.94;;;-1.07;100.00
60170;BME280;46042;49.444;6.862;2023-01-23T01:41:35;100000.19;;;-1.05;100.00
60170;BME280;46042;49.444;6.862;2023-01-23T01:44:02;100008.81;;;-1.03;100.00
60170;BME280;46042;49.444;6.862;2023-01-23T01:46:29;100013.16;;;-1.01;100.00
60170;BME280;46042;49.444;6.862;2023-01-23T01:51:48;100012.28;;;-1.01;100.00
60170;BME280;46042;49.444;6.862;2023-01-23T01:54:44;100007.97;;;-1.01;100.00
60170;BME280;46042;49.444;6.862;2023-01-23T01:57:19;100011.44;;;-0.98;100.00
60170;BME280;46042;49.444;6.862;2023-01-23T01:59:55;100012.31;;;-0.96;100.00
60170;BME280;46042;49.444;6.862;2023-01-23T02:02:27;100013.97;;;-1.05;100.00
60170;BME280;46042;49.444;6.862;2023-01-23T02:05:04;100017.44;;;-1.04;100.00
60170;BME280;46042;49.444;6.862;2023-01-23T02:07:37;100016.56;;;-1.05;100.00
60170;BME280;46042;49.444;6.862;2023-01-23T02:10:07;100013.13;;;-1.04;100.00
60170;BME280;46042;49.444;6.862;2023-01-23T02:12:34;100020.88;;;-1.05;100.00
60170;BME280;46042;49.444;6.862;2023-01-23T02:15:03;100017.44;;;-1.07;100.00
60170;BME280;46042;49.444;6.862;2023-01-23T02:17:31;100020.03;;;-1.04;100.00
60170;BME280;46042;49.444;6.862;2023-01-23T02:20:05;100020.88;;;-1.07;100.00
60170;BME280;46042;49.444;6.862;2023-01-23T02:28:12;100020.88;;;-1.10;100.00
60170;BME280;46042;49.444;6.862;2023-01-23T02:30:41;100012.25;;;-1.10;100.00
60170;BME280;46042;49.444;6.862;2023-01-23T02:33:55;100014.84;;;-1.10;100.00
60170;BME280;46042;49.444;6.862;2023-01-23T02:36:00;100015.69;;;-1.11;100.00
60170;BME280;46042;49.444;6.862;2023-01-23T02:38:45;100014.81;;;-1.13;100.00
60170;BME280;46042;49.444;6.862;2023-01-23T02:41:16;100020.03;;;-1.10;100.00
60170;BME280;46042;49.444;6.862;2023-01-23T02:43:44;100015.72;;;-1.08;100.00
60170;BME280;46042;49.444;6.862;2023-01-23T02:46:12;100017.44;;;-1.07;100.00
60170;BME280;46042;49.444;6.862;2023-01-23T02:48:40;100026.91;;;-1.08;100.00
60170;BME280;46042;49.444;6.862;2023-01-23T02:51:09;100026.91;;;-1.06;100.00
60170;BME280;46042;49.444;6.862;2023-01-23T02:53:35;100029.47;;;-1.11;100.00
60170;BME280;46042;49.444;6.862;2023-01-23T02:56:02;100028.63;;;-1.10;100.00
60170;BME280;46042;49.444;6.862;2023-01-23T02:58:29;100025.19;;;-1.10;100.00
60170;BME280;46042;49.444;6.862;2023-01-23T03:01:14;100031.19;;;-1.16;100.00
60170;BME280;46042;49.444;6.862;2023-01-23T03:03:41;100033.78;;;-1.11;100.00
60170;BME280;46042;49.444;6.862;2023-01-23T03:06:08;100035.50;;;-1.12;100.00
60170;BME280;46042;49.444;6.862;2023-01-23T03:08:34;100033.78;;;-1.13;100.00
60170;BME280;46042;49.444;6.862;2023-01-23T03:11:03;100044.13;;;-1.10;100.00
60170;BME280;46042;49.444;6.862;2023-01-23T03:13:29;100043.28;;;-1.10;100.00
60170;BME280;46042;49.444;6.862;2023-01-23T03:15:56;100032.94;;;-1.09;100.00
60170;BME280;46042;49.444;6.862;2023-01-23T03:18:24;100039.84;;;-1.05;100.00
60170;BME280;46042;49.444;6.862;2023-01-23T03:20:52;100031.22;;;-1.05;100.00
60170;BME280;46042;49.444;6.862;2023-01-23T03:23:19;100039.84;;;-1.06;100.00
60170;BME280;46042;49.444;6.862;2023-01-23T03:25:46;100041.56;;;-1.08;100.00
60170;BME280;46042;49.444;6.862;2023-01-23T03:28:14;100037.28;;;-1.06;100.00
60170;BME280;46042;49.444;6.862;2023-01-23T03:30:59;100043.31;;;-1.03;100.00
60170;BME280;46042;49.444;6.862;2023-01-23T03:33:26;100043.31;;;-1.03;100.00
60170;BME280;46042;49.444;6.862;2023-01-23T03:35:52;100049.31;;;-1.04;100.00
60170;BME280;46042;49.444;6.862;2023-01-23T03:38:19;100045.03;;;-1.06;100.00
60170;BME280;46042;49.444;6.862;2023-01-23T03:40:49;100040.75;;;-1.03;100.00
60170;BME280;46042;49.444;6.862;2023-01-23T03:43:34;100037.25;;;-1.05;100.00
60170;BME280;46042;49.444;6.862;2023-01-23T03:46:01;100032.97;;;-1.07;100.00
60170;BME280;46042;49.444;6.862;2023-01-23T03:48:27;100038.97;;;-1.07;100.00
60170;BME280;46042;49.444;6.862;2023-01-23T03:50:54;100038.13;;;-1.04;100.00
60170;BME280;46042;49.444;6.862;2023-01-23T03:53:21;100038.09;;;-1.09;100.00
60170;BME280;46042;49.444;6.862;2023-01-23T03:55:48;100031.22;;;-1.10;100.00
60170;BME280;46042;49.444;6.862;2023-01-23T03:58:15;100026.03;;;-1.10;100.00
60170;BME280;46042;49.444;6.862;2023-01-23T04:00:42;100028.63;;;-1.10;100.00
60170;BME280;46042;49.444;6.862;2023-01-23T04:03:08;100023.47;;;-1.08;100.00
60170;BME280;46042;49.444;6.862;2023-01-23T04:05:35;100024.34;;;-1.06;100.00
60170;BME280;46042;49.444;6.862;2023-01-23T04:08:02;100024.34;;;-1.06;100.00
60170;BME280;46042;49.444;6.862;2023-01-23T04:10:29;100029.50;;;-1.08;100.00
60170;BME280;46042;49.444;6.862;2023-01-23T04:12:55;100023.47;;;-1.08;100.00
60170;BME280;46042;49.444;6.862;2023-01-23T04:15:22;100029.50;;;-1.09;100.00
60170;BME280;46042;49.444;6.862;2023-01-23T04:17:49;100024.31;;;-1.11;100.00
60170;BME280;46042;49.444;6.862;2023-01-23T04:20:15;100026.03;;;-1.11;100.00
60170;BME280;46042;49.444;6.862;2023-01-23T04:22:42;100044.13;;;-1.11;100.00
60170;BME280;46042;49.444;6.862;2023-01-23T04:25:08;100051.03;;;-1.15;100.00
60170;BME280;46042;49.444;6.862;2023-01-23T04:27:35;100048.44;;;-1.12;100.00
60170;BME280;46042;49.444;6.862;2023-01-23T04:30:02;100047.59;;;-1.11;100.00
60170;BME280;46042;49.444;6.862;2023-01-23T04:32:29;100038.09;;;-1.09;100.00
60170;BME280;46042;49.444;6.862;2023-01-23T04:34:56;100045.88;;;-1.10;100.00
60170;BME280;46042;49.444;6.862;2023-01-23T04:37:22;100034.66;;;-1.08;100.00
60170;BME280;46042;49.444;6.862;2023-01-23T04:39:49;100029.50;;;-1.08;100.00
60170;BME280;46042;49.444;6.862;2023-01-23T04:42:15;100042.41;;;-1.08;100.00
60170;BME280;46042;49.444;6.862;2023-01-23T04:44:42;100045.00;;;-1.08;100.00
60170;BME280;46042;49.444;6.862;2023-01-23T04:47:08;100052.78;;;-1.09;100.00
60170;BME280;46042;49.444;6.862;2023-01-23T04:49:35;100047.59;;;-1.08;100.00
60170;BME280;46042;49.444;6.862;2023-01-23T04:52:02;100044.13;;;-1.11;100.00
60170;BME280;46042;49.444;6.862;2023-01-23T04:54:29;100037.22;;;-1.12;100.00
60170;BME280;46042;49.444;6.862;2023-01-23T04:56:55;100038.09;;;-1.13;100.00
60170;BME280;46042;49.444;6.862;2023-01-23T04:59:22;100032.91;;;-1.13;100.00
60170;BME280;46042;49.444;6.862;2023-01-23T05:01:48;100040.69;;;-1.12;100.00
60170;BME280;46042;49.444;6.862;2023-01-23T05:04:15;100041.53;;;-1.13;100.00
60170;BME280;46042;49.444;6.862;2023-01-23T05:06:42;100044.13;;;-1.11;100.00
60170;BME280;46042;49.444;6.862;2023-01-23T05:09:08;100037.22;;;-1.12;100.00
60170;BME280;46042;49.444;6.862;2023-01-23T05:11:35;100035.50;;;-1.12;100.00
60170;BME280;46042;49.444;6.862;2023-01-23T05:14:02;100030.34;;;-1.12;100.00
60170;BME280;46042;49.444;6.862;2023-01-23T05:16:28;100028.59;;;-1.11;100.00
60170;BME280;46042;49.444;6.862;2023-01-23T05:18:55;100028.66;;;-1.08;100.00
60170;BME280;46042;49.444;6.862;2023-01-23T05:21:21;100023.44;;;-1.13;100.00
60170;BME280;46042;49.444;6.862;2023-01-23T05:23:48;100032.06;;;-1.12;100.00
60170;BME280;46042;49.444;6.862;2023-01-23T05:26:14;100038.09;;;-1.13;100.00
60170;BME280;46042;49.444;6.862;2023-01-23T05:28:41;100038.09;;;-1.15;100.00
60170;BME280;46042;49.444;6.862;2023-01-23T05:31:08;100045.84;;;-1.13;100.00
60170;BME280;46042;49.444;6.862;2023-01-23T05:33:34;100049.31;;;-1.13;100.00
60170;BME280;46042;49.444;6.862;2023-01-23T05:36:01;100045.00;;;-1.14;100.00
60170;BME280;46042;49.444;6.862;2023-01-23T05:38:28;100043.25;;;-1.18;100.00
60170;BME280;46042;49.444;6.862;2023-01-23T05:40:54;100046.69;;;-1.18;100.00
60170;BME280;46042;49.444;6.862;2023-01-23T05:43:21;100051.88;;;-1.16;100.00
60170;BME280;46042;49.444;6.862;2023-01-23T05:45:48;100049.28;;;-1.21;100.00
60170;BME280;46042;49.444;6.862;2023-01-23T05:48:15;100055.28;;;-1.20;100.00
60170;BME280;46042;49.444;6.862;2023-01-23T05:50:41;100063.91;;;-1.21;100.00
60170;BME280;46042;49.444;6.862;2023-01-23T05:53:08;100058.75;;;-1.23;100.00
60170;BME280;46042;49.444;6.862;2023-01-23T05:55:36;100065.63;;;-1.23;100.00
60170;BME280;46042;49.444;6.862;2023-01-23T05:58:03;100061.31;;;-1.24;100.00
60170;BME280;46042;49.444;6.862;2023-01-23T06:00:30;100058.72;;;-1.27;100.00
60170;BME280;46042;49.444;6.862;2023-01-23T06:02:56;100058.69;;;-1.29;100.00
60170;BME280;46042;49.444;6.862;2023-01-23T06:05:23;100055.28;;;-1.28;100.00
60170;BME280;46042;49.444;6.862;2023-01-23T06:07:49;100057.00;;;-1.24;100.00
60170;BME280;46042;49.444;6.862;2023-01-23T06:10:16;100052.69;;;-1.26;100.00
60170;BME280;46042;49.444;6.862;2023-01-23T06:12:43;100057.88;;;-1.25;100.00
60170;BME280;46042;49.444;6.862;2023-01-23T06:15:10;100061.28;;;-1.27;100.00
60170;BME280;46042;49.444;6.862;2023-01-23T06:17:37;100069.06;;;-1.24;100.00
60170;BME280;46042;49.444;6.862;2023-01-23T06:20:04;100071.66;;;-1.23;100.00
60170;BME280;46042;49.444;6.862;2023-01-23T06:22:31;100078.56;;;-1.22;100.00
60170;BME280;46042;49.444;6.862;2023-01-23T06:24:58;100078.56;;;-1.20;100.00
60170;BME280;46042;49.444;6.862;2023-01-23T06:27:24;100077.72;;;-1.19;100.00
60170;BME280;46042;49.444;6.862;2023-01-23T06:29:51;100078.56;;;-1.20;100.00
60170;BME280;46042;49.444;6.862;2023-01-23T06:32:17;100081.13;;;-1.20;100.00
60170;BME280;46042;49.444;6.862;2023-01-23T06:34:44;100083.72;;;-1.20;100.00
60170;BME280;46042;49.444;6.862;2023-01-23T06:37:10;100091.50;;;-1.19;100.00
60170;BME280;46042;49.444;6.862;2023-01-23T06:39:37;100094.13;;;-1.17;100.00
60170;BME280;46042;49.444;6.862;2023-01-23T06:42:04;100097.56;;;-1.17;100.00
60170;BME280;46042;49.444;6.862;2023-01-23T06:44:35;100097.56;;;-1.17;100.00
60170;BME280;46042;49.444;6.862;2023-01-23T06:47:04;100092.38;;;-1.18;100.00
60170;BME280;46042;49.444;6.862;2023-01-23T06:49:30;100093.25;;;-1.16;100.00
60170;BME280;46042;49.444;6.862;2023-01-23T06:51:57;100107.03;;;-1.16;100.00
60170;BME280;46042;49.444;6.862;2023-01-23T06:54:24;100095.00;;;-1.15;100.00
60170;BME280;46042;49.444;6.862;2023-01-23T06:56:50;100095.81;;;-1.18;100.00
60170;BME280;46042;49.444;6.862;2023-01-23T06:59:17;100090.66;;;-1.19;100.00
60170;BME280;46042;49.444;6.862;2023-01-23T07:01:43;100094.97;;;-1.18;100.00
60170;BME280;46042;49.444;6.862;2023-01-23T07:04:10;100088.94;;;-1.16;100.00
60170;BME280;46042;49.444;6.862;2023-01-23T07:06:37;100099.28;;;-1.17;100.00
60170;BME280;46042;49.444;6.862;2023-01-23T07:09:04;100107.03;;;-1.16;100.00
60170;BME280;46042;49.444;6.862;2023-01-23T07:11:30;100100.13;;;-1.17;100.00
60170;BME280;46042;49.444;6.862;2023-01-23T07:13:57;100101.88;;;-1.17;100.00
60170;BME280;46042;49.444;6.862;2023-01-23T07:16:24;100102.75;;;-1.15;100.00
60170;BME280;46042;49.444;6.862;2023-01-23T07:18:50;100108.78;;;-1.16;100.00
60170;BME280;46042;49.444;6.862;2023-01-23T07:21:17;100125.13;;;-1.16;100.00
60170;BME280;46042;49.444;6.862;2023-01-23T07:23:44;100112.22;;;-1.17;100.00
60170;BME280;46042;49.444;6.862;2023-01-23T07:26:10;100123.41;;;-1.18;100.00
60170;BME280;46042;49.444;6.862;2023-01-23T07:28:38;100132.88;;;-1.19;100.00
60170;BME280;46042;49.444;6.862;2023-01-23T07:31:05;100130.31;;;-1.17;100.00
60170;BME280;46042;49.444;6.862;2023-01-23T07:33:32;100134.63;;;-1.16;100.00
60170;BME280;46042;49.444;6.862;2023-01-23T07:35:59;100127.72;;;-1.12;100.00
60170;BME280;46042;49.444;6.862;2023-01-23T07:38:26;100134.66;;;-1.13;100.00
60170;BME280;46042;49.444;6.862;2023-01-23T07:40:57;100148.44;;;-1.11;100.00
60170;BME280;46042;49.444;6.862;2023-01-23T07:43:25;100153.63;;;-1.09;100.00
60170;BME280;46042;49.444;6.862;2023-01-23T07:45:51;100157.06;;;-1.09;100.00
60170;BME280;46042;49.444;6.862;2023-01-23T07:48:18;100158.81;;;-1.09;100.00
60170;BME280;46042;49.444;6.862;2023-01-23T07:50:45;100160.53;;;-1.07;100.00
60170;BME280;46042;49.444;6.862;2023-01-23T07:53:11;100165.72;;;-1.05;100.00
60170;BME280;46042;49.444;6.862;2023-01-23T07:55:38;100164.91;;;-1.03;100.00
60170;BME280;46042;49.444;6.862;2023-01-23T07:58:04;100151.94;;;-1.04;100.00
60170;BME280;46042;49.444;6.862;2023-01-23T08:00:31;100156.25;;;-1.03;100.00
60170;BME280;46042;49.444;6.862;2023-01-23T08:02:58;100167.50;;;-0.99;100.00
60170;BME280;46042;49.444;6.862;2023-01-23T08:05:25;100165.75;;;-1.02;100.00
60170;BME280;46042;49.444;6.862;2023-01-23T08:07:51;100166.63;;;-1.00;100.00
60170;BME280;46042;49.444;6.862;2023-01-23T08:10:37;100170.94;;;-1.01;100.00
60170;BME280;46042;49.444;6.862;2023-01-23T08:13:04;100174.41;;;-0.98;100.00
60170;BME280;46042;49.444;6.862;2023-01-23T08:15:30;100169.22;;;-0.97;100.00
60170;BME280;46042;49.444;6.862;2023-01-23T08:17:57;100171.81;;;-0.98;100.00
60170;BME280;46042;49.444;6.862;2023-01-23T08:20:24;100171.81;;;-0.95;100.00
60170;BME280;46042;49.444;6.862;2023-01-23T08:22:52;100168.38;;;-0.94;100.00
60170;BME280;46042;49.444;6.862;2023-01-23T08:25:18;100172.66;;;-0.95;100.00
60170;BME280;46042;49.444;6.862;2023-01-23T08:27:45;100182.22;;;-0.91;100.00
60170;BME280;46042;49.444;6.862;2023-01-23T08:30:12;100182.22;;;-0.91;100.00
60170;BME280;46042;49.444;6.862;2023-01-23T08:32:38;100196.00;;;-0.89;100.00
60170;BME280;46042;49.444;6.862;2023-01-23T08:35:05;100190.81;;;-0.87;100.00
60170;BME280;46042;49.444;6.862;2023-01-23T08:37:32;100187.38;;;-0.86;100.00
60170;BME280;46042;49.444;6.862;2023-01-23T08:39:59;100182.22;;;-0.84;100.00
60170;BME280;46042;49.444;6.862;2023-01-23T08:42:26;100183.13;;;-0.81;100.00
60170;BME280;46042;49.444;6.862;2023-01-23T08:44:53;100178.81;;;-0.77;100.00
60170;BME280;46042;49.444;6.862;2023-01-23T08:47:19;100182.25;;;-0.78;100.00
60170;BME280;46042;49.444;6.862;2023-01-23T08:49:46;100185.72;;;-0.78;100.00
60170;BME280;46042;49.444;6.862;2023-01-23T08:52:12;100189.16;;;-0.79;100.00
60170;BME280;46042;49.444;6.862;2023-01-23T08:54:39;100177.97;;;-0.75;100.00
60170;BME280;46042;49.444;6.862;2023-01-23T08:57:06;100177.13;;;-0.70;100.00
60170;BME280;46042;49.444;6.862;2023-01-23T08:59:32;100184.06;;;-0.65;100.00
60170;BME280;46042;49.444;6.862;2023-01-23T09:01:59;100191.84;;;-0.57;100.00
60170;BME280;46042;49.444;6.862;2023-01-23T09:04:26;100187.56;;;-0.53;100.00
60170;BME280;46042;49.444;6.862;2023-01-23T09:06:52;100188.47;;;-0.44;100.00
60170;BME280;46042;49.444;6.862;2023-01-23T09:09:19;100178.13;;;-0.40;100.00
60170;BME280;46042;49.444;6.862;2023-01-23T09:11:45;100175.59;;;-0.28;100.00
60170;BME280;46042;49.444;6.862;2023-01-23T09:14:12;100179.91;;;-0.18;100.00
60170;BME280;46042;49.444;6.862;2023-01-23T09:16:39;100173.91;;;0.01;100.00
60170;BME280;46042;49.444;6.862;2023-01-23T09:19:06;100177.41;;;0.09;100.00
60170;BME280;46042;49.444;6.862;2023-01-23T09:21:35;100186.94;;;0.18;100.00
60170;BME280;46042;49.444;6.862;2023-01-23T09:24:02;100176.56;;;0.21;100.00
60170;BME280;46042;49.444;6.862;2023-01-23T09:26:29;100179.13;;;0.30;100.00
60170;BME280;46042;49.444;6.862;2023-01-23T09:28:55;100190.41;;;0.45;100.00
60170;BME280;46042;49.444;6.862;2023-01-23T09:31:22;100187.81;;;0.49;100.00
60170;BME280;46042;49.444;6.862;2023-01-23T09:33:48;100187.81;;;0.54;100.00
60170;BME280;46042;49.444;6.862;2023-01-23T09:36:15;100179.16;;;0.69;100.00
60170;BME280;46042;49.444;6.862;2023-01-23T09:38:41;100181.75;;;0.80;100.00
60170;BME280;46042;49.444;6.862;2023-01-23T09:41:20;100183.47;;;0.95;100.00
60170;BME280;46042;49.444;6.862;2023-01-23T09:43:56;100178.25;;;0.96;100.00
60170;BME280;46042;49.444;6.862;2023-01-23T09:46:27;100182.56;;;0.97;100.00
60170;BME280;46042;49.444;6.862;2023-01-23T09:49:16;100182.59;;;0.94;100.00
60170;BME280;46042;49.444;6.862;2023-01-23T09:52:09;100190.38;;;1.04;100.00
60170;BME280;46042;49.444;6.862;2023-01-23T09:54:47;100192.94;;;1.10;100.00
60170;BME280;46042;49.444;6.862;2023-01-23T09:57:18;100187.78;;;0.99;100.00
60170;BME280;46042;49.444;6.862;2023-01-23T10:00:04;100192.97;;;0.96;100.00
60170;BME280;46042;49.444;6.862;2023-01-23T10:02:32;100193.81;;;1.06;100.00
60170;BME280;46042;49.444;6.862;2023-01-23T10:04:59;100182.59;;;0.94;100.00
60170;BME280;46042;49.444;6.862;2023-01-23T10:10:31;100186.91;;;0.91;100.00
60170;BME280;46042;49.444;6.862;2023-01-23T10:13:18;100185.19;;;0.90;100.00
60170;BME280;46042;49.444;6.862;2023-01-23T10:21:33;100180.88;;;0.89;100.00
60170;BME280;46042;49.444;6.862;2023-01-23T10:27:32;100167.03;;;0.79;100.00
60170;BME280;46042;49.444;6.862;2023-01-23T10:35:31;100178.28;;;0.65;100.00
60170;BME280;46042;49.444;6.862;2023-01-23T10:40:50;100167.94;;;0.59;100.00
60170;BME280;46042;49.444;6.862;2023-01-23T10:43:35;100169.63;;;0.66;100.00
60170;BME280;46042;49.444;6.862;2023-01-23T10:46:13;100161.88;;;0.63;100.00
60170;BME280;46042;49.444;6.862;2023-01-23T10:48:48;100173.09;;;0.68;100.00
60170;BME280;46042;49.444;6.862;2023-01-23T10:54:18;100162.72;;;0.70;100.00
60170;BME280;46042;49.444;6.862;2023-01-23T10:57:18;100165.31;;;0.62;100.00
60170;BME280;46042;49.444;6.862;2023-01-23T11:02:32;100155.78;;;0.80;100.00
60170;BME280;46042;49.444;6.862;2023-01-23T11:05:00;100142.00;;;0.67;100.00
60170;BME280;46042;49.444;6.862;2023-01-23T11:07:30;100165.34;;;0.64;100.00
60170;BME280;46042;49.444;6.862;2023-01-23T11:09:59;100145.44;;;0.67;100.00
60170;BME280;46042;49.444;6.862;2023-01-23T11:12:32;100148.88;;;0.71;100.00
60170;BME280;46042;49.444;6.862;2023-01-23T11:17:49;100141.06;;;0.85;100.00
60170;BME280;46042;49.444;6.862;2023-01-23T11:20:27;100146.28;;;0.74;100.00
60170;BME280;46042;49.444;6.862;2023-01-23T11:25:31;100133.31;;;0.80;100.00
60170;BME280;46042;49.444;6.862;2023-01-23T11:28:01;100135.91;;;0.87;100.00
60170;BME280;46042;49.444;6.862;2023-01-23T11:33:03;100137.63;;;0.84;100.00
60170;BME280;46042;49.444;6.862;2023-01-23T11:35:43;100139.38;;;0.81;100.00
60170;BME280;46042;49.444;6.862;2023-01-23T11:38:16;100128.16;;;0.59;100.00
60170;BME280;46042;49.444;6.862;2023-01-23T11:40:56;100138.53;;;0.68;100.00
60170;BME280;46042;49.444;6.862;2023-01-23T11:43:23;100135.91;;;0.76;100.00
60170;BME280;46042;49.444;6.862;2023-01-23T11:51:12;100130.75;;;0.73;100.00
60170;BME280;46042;49.444;6.862;2023-01-23T11:56:46;100128.09;;;0.85;100.00
60170;BME280;46042;49.444;6.862;2023-01-23T11:59:24;100135.03;;;0.75;100.00
60170;BME280;46042;49.444;6.862;2023-01-23T12:05:24;100130.72;;;0.87;100.00
60170;BME280;46042;49.444;6.862;2023-01-23T12:08:20;100122.06;;;0.89;100.00
60170;BME280;46042;49.444;6.862;2023-01-23T12:11:14;100132.44;;;0.80;100.00
60170;BME280;46042;49.444;6.862;2023-01-23T12:13:59;100132.47;;;0.81;100.00
60170;BME280;46042;49.444;6.862;2023-01-23T12:16:52;100129.84;;;0.80;100.00
60170;BME280;46042;49.444;6.862;2023-01-23T12:22:30;100132.47;;;0.74;100.00
60170;BME280;46042;49.444;6.862;2023-01-23T12:27:41;100133.31;;;0.71;100.00
60170;BME280;46042;49.444;6.862;2023-01-23T12:42:02;100123.84;;;0.61;100.00
60170;BME280;46042;49.444;6.862;2023-01-23T12:44:37;100126.41;;;0.65;100.00
60170;BME280;46042;49.444;6.862;2023-01-23T12:47:17;100123.81;;;0.65;100.00
60170;BME280;46042;49.444;6.862;2023-01-23T12:49:58;100128.16;;;0.63;100.00
60170;BME280;46042;49.444;6.862;2023-01-23T12:52:33;100125.56;;;0.60;100.00
60170;BME280;46042;49.444;6.862;2023-01-23T12:55:02;100126.44;;;0.51;100.00
60170;BME280;46042;49.444;6.862;2023-01-23T12:57:31;100127.28;;;0.53;100.00
60170;BME280;46042;49.444;6.862;2023-01-23T13:03:32;100115.22;;;0.41;100.00
60170;BME280;46042;49.444;6.862;2023-01-23T13:06:31;100114.34;;;0.36;100.00
60170;BME280;46042;49.444;6.862;2023-01-23T13:09:09;100121.28;;;0.37;100.00
60170;BME280;46042;49.444;6.862;2023-01-23T13:11:54;100112.59;;;0.32;100.00
60170;BME280;46042;49.444;6.862;2023-01-23T13:17:37;100131.63;;;0.25;100.00
60170;BME280;46042;49.444;6.862;2023-01-23T13:23:31;100120.38;;;0.32;100.00
60170;BME280;46042;49.444;6.862;2023-01-23T13:28:45;100110.91;;;0.30;100.00
60170;BME280;46042;49.444;6.862;2023-01-23T13:33:53;100108.31;;;0.40;100.00
60170;BME280;46042;49.444;6.862;2023-01-23T13:36:36;100113.47;;;0.42;100.00
60170;BME280;46042;49.444;6.862;2023-01-23T13:41:38;100115.22;;;0.34;100.00
60170;BME280;46042;49.444;6.862;2023-01-23T13:52:41;100102.22;;;0.51;100.00
60170;BME280;46042;49.444;6.862;2023-01-23T13:55:44;100110.88;;;0.47;100.00
60170;BME280;46042;49.444;6.862;2023-01-23T13:58:44;100116.94;;;0.42;100.00
60170;BME280;46042;49.444;6.862;2023-01-23T14:01:30;100115.22;;;0.41;100.00
60170;BME280;46042;49.444;6.862;2023-01-23T14:04:33;100124.72;;;0.38;100.00
60170;BME280;46042;49.444;6.862;2023-01-23T14:07:33;100135.09;;;0.39;100.00
60170;BME280;46042;49.444;6.862;2023-01-23T14:13:18;100123.84;;;0.25;100.00
60170;BME280;46042;49.444;6.862;2023-01-23T14:16:00;100128.19;;;0.34;100.00
60170;BME280;46042;49.444;6.862;2023-01-23T14:18:54;100125.56;;;0.32;100.00
60170;BME280;46042;49.444;6.862;2023-01-23T14:21:37;100129.03;;;0.31;100.00
60170;BME280;46042;49.444;6.862;2023-01-23T14:26:51;100128.16;;;0.37;100.00
60170;BME280;46042;49.444;6.862;2023-01-23T14:29:23;100129.91;;;0.39;100.00
60170;BME280;46042;49.444;6.862;2023-01-23T14:31:51;100118.66;;;0.44;100.00
60170;BME280;46042;49.444;6.862;2023-01-23T14:34:22;100116.06;;;0.31;100.00
60170;BME280;46042;49.444;6.862;2023-01-23T14:37:02;100118.66;;;0.34;100.00
60170;BME280;46042;49.444;6.862;2023-01-23T14:39:31;100111.75;;;0.36;100.00
60170;BME280;46042;49.444;6.862;2023-01-23T14:42:00;100116.94;;;0.33;100.00